Terminal Aerodrome Forecast
Issued by NWS

Home | Current Version | Previous Version | Text Only | Print | Product List | Glossary On
Versions: 1 2 3 4 5 6 7 8 9 10 11 12 13 14 15 16 17 18 19 20 21 22 23 24
000
FTUS42 KFFC 160500
TAFPDK
TAF
KPDK 160533Z 1606/1706 16003KT 5SM BR VCSH BKN015
     FM160900 23003KT 4SM BR BKN007
     FM161300 31005KT 6SM BR BKN015
     FM161500 33008KT P6SM SCT025 BKN040
     FM161800 33010KT P6SM SCT050 BKN100
     FM170200 35005KT P6SM SCT120 BKN250=

USA.gov is the U.S. government's official web portal to all federal, state and local government web resources and services.